createdAt,value
2022-12-01T00:01:54.706Z,53.00
2022-12-01T00:04:56.415Z,49.87
2022-12-01T00:07:59.274Z,55.33
2022-12-01T00:11:14.258Z,52.07
2022-12-01T00:14:16.389Z,57.20
2022-12-01T00:17:18.143Z,51.03
2022-12-01T00:20:19.838Z,49.83
2022-12-01T00:23:21.764Z,51.57
2022-12-01T00:26:24.361Z,57.77
2022-12-01T00:29:26.104Z,52.50
2022-12-01T00:32:30.348Z,54.67
2022-12-01T00:35:32.026Z,54.40
2022-12-01T00:38:34.199Z,59.93
2022-12-01T00:41:35.953Z,57.40
2022-12-01T00:44:37.651Z,53.27
2022-12-01T00:47:39.332Z,56.57
2022-12-01T00:50:41.241Z,51.93
2022-12-01T00:53:42.929Z,54.20
2022-12-01T00:56:44.599Z,51.20
2022-12-01T00:59:46.557Z,52.77
2022-12-01T01:02:48.610Z,53.27
2022-12-01T01:05:50.301Z,53.07
2022-12-01T01:08:52.015Z,54.43
2022-12-01T01:11:53.916Z,52.27
2022-12-01T01:14:55.605Z,54.67
2022-12-01T01:17:57.273Z,53.33
2022-12-01T01:21:01.337Z,54.70
2022-12-01T01:24:03.092Z,49.87
2022-12-01T01:27:06.091Z,48.43
2022-12-01T01:30:08.299Z,49.20
2022-12-01T01:33:10.310Z,48.80
2022-12-01T01:36:12.799Z,50.30
2022-12-01T01:39:14.443Z,49.60
2022-12-01T01:42:19.598Z,47.57
2022-12-01T01:45:23.905Z,51.67
2022-12-01T01:48:25.604Z,54.03
2022-12-01T01:51:36.850Z,51.70
2022-12-01T01:54:44.421Z,49.67
2022-12-01T01:57:46.756Z,48.37
2022-12-01T02:00:48.548Z,48.63
2022-12-01T02:03:54.236Z,47.77
2022-12-01T02:06:55.923Z,47.23
2022-12-01T02:09:58.011Z,48.47
2022-12-01T02:13:18.398Z,47.50
2022-12-01T02:16:32.186Z,43.37
2022-12-01T02:19:48.969Z,43.60
2022-12-01T02:23:09.481Z,43.93
2022-12-01T02:26:39.378Z,43.33
2022-12-01T02:30:03.360Z,42.47
2022-12-01T02:33:32.920Z,41.53
2022-12-01T02:36:42.028Z,44.77
2022-12-01T02:40:16.568Z,43.20
2022-12-01T02:43:37.244Z,48.30
2022-12-01T02:46:46.641Z,43.17
2022-12-01T02:49:51.461Z,41.23
2022-12-01T02:52:54.316Z,45.17
2022-12-01T02:55:58.569Z,40.73
2022-12-01T02:59:00.145Z,41.50
2022-12-01T03:02:43.838Z,40.10
2022-12-01T03:05:58.261Z,37.10
2022-12-01T03:09:13.147Z,35.80
2022-12-01T03:12:34.337Z,35.47
2022-12-01T03:15:57.257Z,33.67
2022-12-01T03:19:10.078Z,29.00
2022-12-01T03:22:39.315Z,28.93
2022-12-01T03:25:44.790Z,31.53
2022-12-01T03:28:50.329Z,28.17
2022-12-01T03:31:58.577Z,29.27
2022-12-01T03:35:10.819Z,31.67
2022-12-01T03:38:21.874Z,28.20
2022-12-01T03:41:29.662Z,27.60
2022-12-01T03:44:42.642Z,28.47
2022-12-01T03:47:45.135Z,27.77
2022-12-01T03:51:15.412Z,26.63
2022-12-01T03:54:25.530Z,27.23
2022-12-01T03:57:35.875Z,27.93
2022-12-01T04:00:38.899Z,26.73
2022-12-01T04:03:40.831Z,26.63
2022-12-01T04:06:46.010Z,26.03
2022-12-01T04:09:48.099Z,24.70
2022-12-01T04:12:50.124Z,21.90
2022-12-01T04:15:54.171Z,22.17
2022-12-01T04:18:56.005Z,25.60
2022-12-01T04:21:57.712Z,23.20
2022-12-01T04:24:59.674Z,23.87
2022-12-01T04:28:01.312Z,24.43
2022-12-01T04:31:06.073Z,28.80
2022-12-01T04:34:07.875Z,24.83
2022-12-01T04:37:10.090Z,24.80
2022-12-01T04:40:12.069Z,27.03
2022-12-01T04:43:13.723Z,25.73
2022-12-01T04:46:18.475Z,25.77
2022-12-01T04:49:21.607Z,28.67
2022-12-01T04:52:23.317Z,31.20
2022-12-01T04:55:36.893Z,32.57
2022-12-01T04:58:38.625Z,29.13
2022-12-01T05:01:40.497Z,28.53
2022-12-01T05:04:42.285Z,33.90
2022-12-01T05:07:44.472Z,29.40
2022-12-01T05:10:46.186Z,29.40
2022-12-01T05:13:49.380Z,27.77
2022-12-01T05:16:51.169Z,30.13
2022-12-01T05:20:11.402Z,26.77
2022-12-01T05:23:16.729Z,31.13
2022-12-01T05:26:18.884Z,28.00
2022-12-01T05:29:20.530Z,27.30
2022-12-01T05:32:22.162Z,30.20
2022-12-01T05:35:23.915Z,29.90
2022-12-01T05:38:25.640Z,31.13
2022-12-01T05:41:27.281Z,28.70
2022-12-01T05:44:28.952Z,33.07
2022-12-01T05:47:30.614Z,31.93
2022-12-01T05:50:32.662Z,34.60
2022-12-01T05:53:34.303Z,31.50
2022-12-01T05:56:36.024Z,31.97
2022-12-01T05:59:37.763Z,30.77
2022-12-01T06:02:40.711Z,30.87
2022-12-01T06:05:42.364Z,33.93
2022-12-01T06:08:44.128Z,29.53
2022-12-01T06:11:48.961Z,34.47
2022-12-01T06:14:52.955Z,33.70
2022-12-01T06:17:54.588Z,33.83
2022-12-01T06:20:56.388Z,32.37
2022-12-01T06:23:58.056Z,33.30
2022-12-01T06:26:59.698Z,33.63
2022-12-01T06:30:01.478Z,34.30
2022-12-01T06:33:03.282Z,35.20
2022-12-01T06:36:06.945Z,33.07
2022-12-01T06:39:10.072Z,32.33
2022-12-01T06:42:12.138Z,33.07
2022-12-01T06:45:14.061Z,34.30
2022-12-01T06:48:15.787Z,33.10
2022-12-01T06:51:17.513Z,36.43
2022-12-01T06:54:19.286Z,33.90
2022-12-01T06:57:20.919Z,40.70
2022-12-01T07:00:22.850Z,34.37
2022-12-01T07:03:24.634Z,33.43
2022-12-01T07:06:26.873Z,35.43
2022-12-01T07:09:28.534Z,43.60
2022-12-01T07:12:31.561Z,37.70
2022-12-01T07:15:33.231Z,37.00
2022-12-01T07:18:37.012Z,34.77
2022-12-01T07:21:38.705Z,38.20
2022-12-01T07:24:40.332Z,34.80
2022-12-01T07:27:42.033Z,34.23
2022-12-01T07:30:43.768Z,32.03
2022-12-01T07:33:45.738Z,36.37
2022-12-01T07:36:47.419Z,35.27
2022-12-01T07:39:49.273Z,36.23
2022-12-01T07:42:51.135Z,33.13
2022-12-01T07:45:52.828Z,37.47
2022-12-01T07:48:55.575Z,37.33
2022-12-01T07:51:57.261Z,36.40
2022-12-01T07:54:58.900Z,35.73
2022-12-01T07:58:00.840Z,33.43
2022-12-01T08:01:08.082Z,35.47
2022-12-01T08:04:17.934Z,31.90
2022-12-01T08:07:19.756Z,33.43
2022-12-01T08:10:21.464Z,32.30
2022-12-01T08:13:23.252Z,33.23
2022-12-01T08:16:25.706Z,28.97
2022-12-01T08:19:29.258Z,35.53
2022-12-01T08:22:30.937Z,31.63
2022-12-01T08:25:32.593Z,36.00
2022-12-01T08:28:37.595Z,36.47
2022-12-01T08:31:48.694Z,30.03
2022-12-01T08:34:53.532Z,33.57
2022-12-01T08:37:55.530Z,34.10
2022-12-01T08:41:01.995Z,35.00
2022-12-01T08:44:03.792Z,30.93
2022-12-01T08:47:18.705Z,33.93
2022-12-01T08:50:20.600Z,33.93
2022-12-01T08:53:22.244Z,30.93
2022-12-01T08:56:27.812Z,29.37
2022-12-01T08:59:29.504Z,32.40
2022-12-01T09:02:31.301Z,36.13
2022-12-01T09:05:34.205Z,34.43
2022-12-01T09:08:36.400Z,34.13
2022-12-01T09:11:38.643Z,33.73
2022-12-01T09:14:42.529Z,31.47
2022-12-01T09:17:44.120Z,29.00
2022-12-01T09:20:45.701Z,29.90
2022-12-01T09:23:47.919Z,29.57
2022-12-01T09:27:16.576Z,27.10
2022-12-01T09:30:18.344Z,30.43
2022-12-01T09:33:20.025Z,29.67
2022-12-01T09:36:21.711Z,28.10
2022-12-01T09:39:23.436Z,27.77
2022-12-01T09:42:30.837Z,29.23
2022-12-01T09:45:42.752Z,26.53
2022-12-01T09:48:46.697Z,29.87
2022-12-01T09:51:49.425Z,28.07
2022-12-01T09:54:52.217Z,30.13
2022-12-01T09:57:56.296Z,25.13
2022-12-01T10:00:58.630Z,27.80
2022-12-01T10:04:17.528Z,30.13
2022-12-01T10:07:52.757Z,29.00
2022-12-01T10:11:33.569Z,27.07
2022-12-01T10:14:40.524Z,24.43
2022-12-01T10:18:00.241Z,25.77
2022-12-01T10:21:04.633Z,29.07
2022-12-01T10:24:25.069Z,26.97
2022-12-01T10:27:58.521Z,24.77
2022-12-01T10:31:32.555Z,24.20
2022-12-01T10:34:37.412Z,25.43
2022-12-01T10:37:40.112Z,29.67
2022-12-01T10:40:43.847Z,23.50
2022-12-01T10:43:50.555Z,24.50
2022-12-01T10:46:56.486Z,26.87
2022-12-01T10:49:58.680Z,26.60
2022-12-01T10:53:01.759Z,24.43
2022-12-01T10:56:15.533Z,27.17
2022-12-01T10:59:52.970Z,28.53
2022-12-01T11:02:55.156Z,27.63
2022-12-01T11:05:59.662Z,27.60
2022-12-01T11:09:10.103Z,29.30
2022-12-01T11:12:16.786Z,26.00
2022-12-01T11:15:24.331Z,29.90
2022-12-01T11:18:36.012Z,24.10
2022-12-01T11:21:52.146Z,25.43
2022-12-01T11:24:53.731Z,26.00
2022-12-01T11:28:01.305Z,25.53
2022-12-01T11:31:06.315Z,27.57
2022-12-01T11:34:26.503Z,23.83
2022-12-01T11:37:36.835Z,24.50
2022-12-01T11:40:47.207Z,24.47
2022-12-01T11:44:00.837Z,19.90
2022-12-01T11:47:24.090Z,24.13
2022-12-01T11:50:30.404Z,24.53
2022-12-01T11:53:44.898Z,25.70
2022-12-01T11:56:52.736Z,25.50
2022-12-01T12:00:13.211Z,23.67
2022-12-01T12:03:56.356Z,23.93
2022-12-01T12:07:25.929Z,24.53
2022-12-01T12:10:43.238Z,22.43
2022-12-01T12:14:12.164Z,21.87
2022-12-01T12:17:23.089Z,23.47
2022-12-01T12:20:36.462Z,23.63
2022-12-01T12:23:56.720Z,22.07
2022-12-01T12:27:14.858Z,23.90
2022-12-01T12:30:31.529Z,23.20
2022-12-01T12:33:45.175Z,25.07
2022-12-01T12:37:07.094Z,22.47
2022-12-01T12:40:21.405Z,24.83
2022-12-01T12:43:26.870Z,22.97
2022-12-01T12:46:44.823Z,20.80
2022-12-01T12:50:04.353Z,20.87
2022-12-01T12:53:15.933Z,22.83
2022-12-01T12:56:22.441Z,21.77
2022-12-01T12:59:34.478Z,20.67
2022-12-01T13:02:50.786Z,19.97
2022-12-01T13:06:01.962Z,21.60
2022-12-01T13:09:27.020Z,20.67
2022-12-01T13:12:32.570Z,20.77
2022-12-01T13:15:36.481Z,19.23
2022-12-01T13:18:43.624Z,19.43
2022-12-01T13:21:49.079Z,16.97
2022-12-01T13:24:51.003Z,19.83
2022-12-01T13:27:53.494Z,20.67
2022-12-01T13:31:22.224Z,21.63
2022-12-01T13:34:48.041Z,21.10
2022-12-01T13:37:49.806Z,19.63
2022-12-01T13:41:33.859Z,22.47
2022-12-01T13:44:44.728Z,20.30
2022-12-01T13:47:54.349Z,21.53
2022-12-01T13:50:59.791Z,21.60
2022-12-01T13:54:06.999Z,22.50
2022-12-01T13:57:13.932Z,25.10
2022-12-01T14:00:24.078Z,24.50
2022-12-01T14:03:28.880Z,22.23
2022-12-01T14:06:46.459Z,25.30
2022-12-01T14:09:51.431Z,20.60
2022-12-01T14:12:56.568Z,24.00
2022-12-01T14:16:01.390Z,23.70
2022-12-01T14:19:03.188Z,24.93
2022-12-01T14:22:28.032Z,26.17
2022-12-01T14:25:30.903Z,24.13
2022-12-01T14:28:55.727Z,22.73
2022-12-01T14:32:00.122Z,19.10
2022-12-01T14:35:05.108Z,25.53
2022-12-01T14:38:10.018Z,21.87
2022-12-01T14:41:23.652Z,22.93
2022-12-01T14:44:44.676Z,23.97
2022-12-01T14:47:54.599Z,22.87
2022-12-01T14:51:16.789Z,24.43
2022-12-01T14:54:27.782Z,23.07
2022-12-01T14:57:40.165Z,25.20
2022-12-01T15:01:14.319Z,24.83
2022-12-01T15:04:16.114Z,25.27
2022-12-01T15:07:21.526Z,27.43
2022-12-01T15:10:27.091Z,26.23
2022-12-01T15:13:32.019Z,24.93
2022-12-01T15:16:41.048Z,24.83
2022-12-01T15:19:44.057Z,27.13
2022-12-01T15:22:45.862Z,26.83
2022-12-01T15:25:47.570Z,28.53
2022-12-01T15:28:49.797Z,27.87
2022-12-01T15:31:54.659Z,29.73
2022-12-01T15:35:01.647Z,26.60
2022-12-01T15:38:04.130Z,25.23
2022-12-01T15:41:28.366Z,27.37
2022-12-01T15:44:36.315Z,28.70
2022-12-01T15:47:52.051Z,27.87
2022-12-01T15:51:19.736Z,32.90
2022-12-01T15:54:25.141Z,32.50
2022-12-01T15:57:29.897Z,32.00
2022-12-01T16:00:31.914Z,31.43
2022-12-01T16:03:53.668Z,29.27
2022-12-01T16:07:03.196Z,31.80
2022-12-01T16:10:05.730Z,33.90
2022-12-01T16:13:41.679Z,34.53
2022-12-01T16:16:47.057Z,33.13
2022-12-01T16:19:48.928Z,32.30
2022-12-01T16:23:02.879Z,28.67
2022-12-01T16:26:08.116Z,32.07
2022-12-01T16:29:21.456Z,32.17
2022-12-01T16:32:31.550Z,33.10
2022-12-01T16:35:34.062Z,37.13
2022-12-01T16:38:35.753Z,35.17
2022-12-01T16:41:44.374Z,38.03
2022-12-01T16:44:46.642Z,37.63
2022-12-01T16:47:49.254Z,38.87
2022-12-01T16:50:51.910Z,41.87
2022-12-01T16:53:53.595Z,38.90
2022-12-01T16:56:55.241Z,33.73
2022-12-01T16:59:56.879Z,39.83
2022-12-01T17:02:58.932Z,37.60
2022-12-01T17:06:01.803Z,39.60
2022-12-01T17:09:03.481Z,31.97
2022-12-01T17:12:05.657Z,34.07
2022-12-01T17:15:08.299Z,33.40
2022-12-01T17:18:10.356Z,37.77
2022-12-01T17:21:12.257Z,36.13
2022-12-01T17:24:18.817Z,36.60
2022-12-01T17:27:21.650Z,37.27
2022-12-01T17:30:23.527Z,35.77
2022-12-01T17:33:25.272Z,34.83
2022-12-01T17:36:29.432Z,33.67
2022-12-01T17:39:31.116Z,34.43
2022-12-01T17:42:33.857Z,37.67
2022-12-01T17:45:35.565Z,38.40
2022-12-01T17:48:38.909Z,33.80
2022-12-01T17:51:41.756Z,36.50
2022-12-01T17:54:44.005Z,33.27
2022-12-01T17:57:45.789Z,35.53
2022-12-01T18:00:50.428Z,38.53
2022-12-01T18:03:52.266Z,36.47
2022-12-01T18:06:54.684Z,40.60
2022-12-01T18:09:56.555Z,40.90
2022-12-01T18:12:58.305Z,40.70
2022-12-01T18:16:00.015Z,38.33
2022-12-01T18:19:02.275Z,40.40
2022-12-01T18:22:04.027Z,34.60
2022-12-01T18:25:05.933Z,37.07
2022-12-01T18:28:09.725Z,41.53
2022-12-01T18:31:15.092Z,33.83
2022-12-01T18:34:16.775Z,38.30
2022-12-01T18:37:18.514Z,35.03
2022-12-01T18:40:20.319Z,32.10
2022-12-01T18:43:22.051Z,32.37
2022-12-01T18:46:24.133Z,31.87
2022-12-01T18:49:25.853Z,35.43
2022-12-01T18:52:27.569Z,30.87
2022-12-01T18:55:29.289Z,29.17
2022-12-01T18:58:31.899Z,27.17
2022-12-01T19:01:40.011Z,31.03
2022-12-01T19:04:42.004Z,29.73
2022-12-01T19:07:43.724Z,28.77
2022-12-01T19:10:45.489Z,32.60
2022-12-01T19:13:47.738Z,27.80
2022-12-01T19:16:50.902Z,29.90
2022-12-01T19:19:54.713Z,26.43
2022-12-01T19:22:57.501Z,24.27
2022-12-01T19:26:02.055Z,27.93
2022-12-01T19:29:04.159Z,28.13
2022-12-01T19:32:05.894Z,30.93
2022-12-01T19:35:07.949Z,28.77
2022-12-01T19:38:10.016Z,28.33
2022-12-01T19:41:13.639Z,28.07
2022-12-01T19:44:15.335Z,28.50
2022-12-01T19:47:21.913Z,29.93
2022-12-01T19:50:24.110Z,33.47
2022-12-01T19:53:31.978Z,29.80
2022-12-01T19:56:38.657Z,30.10
2022-12-01T19:59:40.326Z,30.53
2022-12-01T20:02:42.008Z,25.83
2022-12-01T20:05:45.780Z,30.03
2022-12-01T20:08:48.082Z,28.63
2022-12-01T20:11:53.003Z,28.30
2022-12-01T20:14:54.825Z,28.87
2022-12-01T20:17:56.474Z,29.67
2022-12-01T20:21:19.147Z,28.60
2022-12-01T20:24:22.081Z,30.40
2022-12-01T20:27:23.932Z,28.20
2022-12-01T20:30:25.649Z,28.73
2022-12-01T20:33:28.215Z,26.23
2022-12-01T20:36:30.252Z,25.67
2022-12-01T20:39:34.547Z,26.07
2022-12-01T20:42:39.549Z,25.37
2022-12-01T20:45:41.489Z,30.87
2022-12-01T20:48:43.327Z,31.13
2022-12-01T20:51:45.768Z,26.07
2022-12-01T20:54:47.914Z,28.57
2022-12-01T20:57:49.928Z,23.47
2022-12-01T21:00:51.630Z,23.77
2022-12-01T21:03:53.904Z,23.03
2022-12-01T21:06:59.268Z,21.10
2022-12-01T21:10:04.179Z,22.23
2022-12-01T21:13:36.865Z,20.70
2022-12-01T21:16:39.189Z,19.70
2022-12-01T21:20:11.609Z,21.03
2022-12-01T21:23:15.937Z,21.43
2022-12-01T21:26:18.980Z,20.87
2022-12-01T21:29:26.184Z,20.57
2022-12-01T21:32:34.036Z,23.10
2022-12-01T21:35:35.753Z,21.97
2022-12-01T21:38:37.443Z,21.13
2022-12-01T21:41:39.207Z,21.10
2022-12-01T21:44:40.927Z,21.97
2022-12-01T21:47:42.788Z,19.13
2022-12-01T21:50:48.107Z,19.43
2022-12-01T21:53:56.395Z,19.20
2022-12-01T21:56:58.552Z,22.73
2022-12-01T22:00:24.449Z,19.53
2022-12-01T22:03:26.186Z,20.70
2022-12-01T22:06:33.905Z,18.83
2022-12-01T22:09:36.988Z,20.10
2022-12-01T22:12:38.655Z,22.30
2022-12-01T22:15:41.274Z,20.27
2022-12-01T22:18:47.171Z,20.90
2022-12-01T22:22:09.310Z,21.53
2022-12-01T22:25:25.286Z,21.33
2022-12-01T22:28:27.044Z,21.03
2022-12-01T22:31:29.504Z,21.60
2022-12-01T22:34:31.282Z,23.77
2022-12-01T22:37:44.722Z,22.90
2022-12-01T22:40:54.834Z,23.10
2022-12-01T22:43:59.554Z,22.73
2022-12-01T22:47:03.074Z,22.20
2022-12-01T22:50:28.423Z,22.27
2022-12-01T22:53:31.007Z,21.03
2022-12-01T22:56:37.447Z,22.87
2022-12-01T22:59:42.206Z,22.90
2022-12-01T23:02:53.012Z,22.27
2022-12-01T23:05:57.238Z,22.20
2022-12-01T23:08:58.922Z,20.30
2022-12-01T23:12:26.442Z,20.67
2022-12-01T23:15:47.862Z,22.17
2022-12-01T23:18:49.663Z,21.33
2022-12-01T23:21:52.732Z,20.77
2022-12-01T23:24:54.605Z,20.93
2022-12-01T23:28:00.750Z,19.97
2022-12-01T23:31:02.642Z,19.53
2022-12-01T23:34:13.315Z,18.23
2022-12-01T23:37:36.848Z,20.30
2022-12-01T23:40:38.811Z,16.83
2022-12-01T23:43:43.184Z,18.97
2022-12-01T23:46:45.931Z,18.43
2022-12-01T23:49:50.884Z,17.80
2022-12-01T23:52:53.802Z,16.50
2022-12-01T23:55:59.340Z,16.17
2022-12-01T23:59:01.389Z,17.47
